Time;durP1;ratioP1;P1;durP2;ratioP2;P2;SDS_P1;SDS_P2;PMS_P1;PMS_P2;Temp;Humidity;BMP_temperature;BMP_pressure;BME280_temperature;BME280_humidity;BME280_pressure;Samples;Min_cycle;Max_cycle;Signal;HPM_P1;HPM_P2
2022/01/30 00:01:02;;;;;;;19.33;4.10;;;7.30;77.50;;;;;;5134202;27;20035;-79
2022/01/30 00:03:28;;;;;;;14.73;3.58;;;7.30;78.50;;;;;;5117025;27;20039;-79
2022/01/30 00:05:54;;;;;;;17.25;3.17;;;7.30;78.30;;;;;;5134262;27;20483;-79
2022/01/30 00:08:20;;;;;;;23.50;4.63;;;7.20;78.10;;;;;;5133935;27;20483;-79
2022/01/30 00:10:51;;;;;;;20.67;5.03;;;7.30;77.60;;;;;;5100018;27;20051;-80
2022/01/30 00:13:19;;;;;;;19.52;4.05;;;7.30;77.70;;;;;;5133898;27;20035;-78
2022/01/30 00:15:49;;;;;;;20.50;5.40;;;7.40;77.80;;;;;;5099850;27;20049;-79
2022/01/30 00:20:45;;;;;;;15.77;3.92;;;7.30;78.80;;;;;;5116621;27;20141;-79
2022/01/30 00:23:23;;;;;;;25.15;4.50;;;7.40;80.10;;;;;;5099840;27;20043;-79
2022/01/30 00:25:51;;;;;;;19.67;4.57;;;7.30;81.40;;;;;;5101155;27;20487;-80
2022/01/30 00:28:19;;;;;;;17.63;5.63;;;7.10;81.70;;;;;;5100100;27;20043;-80
2022/01/30 00:30:45;;;;;;;26.25;5.25;;;7.10;82.80;;;;;;5133803;27;20088;-80
2022/01/30 00:33:11;;;;;;;17.58;3.75;;;7.00;83.00;;;;;;5099797;27;20039;-80
2022/01/30 00:35:37;;;;;;;24.00;4.10;;;6.90;82.70;;;;;;5099366;27;20490;-79
2022/01/30 00:38:05;;;;;;;20.33;4.72;;;6.90;82.50;;;;;;5116158;27;20035;-80
2022/01/30 00:40:31;;;;;;;24.95;4.35;;;6.80;82.90;;;;;;5116500;27;20082;-80
2022/01/30 00:42:56;;;;;;;19.98;4.55;;;6.70;82.90;;;;;;5099271;27;20456;-81
2022/01/30 00:45:22;;;;;;;19.67;4.10;;;6.60;83.10;;;;;;5133334;27;20062;-80
2022/01/30 00:47:48;;;;;;;23.40;5.60;;;6.60;82.90;;;;;;5099035;27;20178;-81
2022/01/30 00:50:14;;;;;;;25.00;5.53;;;6.50;82.70;;;;;;5099148;27;20539;-81
2022/01/30 00:52:40;;;;;;;22.00;5.13;;;6.50;82.30;;;;;;5099066;27;20050;-80
2022/01/30 00:55:06;;;;;;;20.80;4.20;;;6.40;82.10;;;;;;5099178;27;20312;-81
2022/01/30 00:57:31;;;;;;;22.08;4.15;;;6.40;82.30;;;;;;5082576;27;20043;-80
2022/01/30 00:59:57;;;;;;;20.88;4.97;;;6.30;82.80;;;;;;5099273;27;20046;-80
2022/01/30 01:02:23;;;;;;;19.45;3.88;;;6.30;83.30;;;;;;5133023;27;20574;-80
2022/01/30 01:04:49;;;;;;;23.85;4.95;;;6.30;83.40;;;;;;5132873;27;20047;-80
2022/01/30 01:07:19;;;;;;;23.13;4.65;;;6.20;83.30;;;;;;5098957;27;20039;-81
2022/01/30 01:09:56;;;;;;;22.25;5.63;;;6.30;83.30;;;;;;5098580;28;20035;-81
2022/01/30 01:25:46;;;;;;;23.35;5.15;;;6.40;82.60;;;;;;5099276;28;20047;-81
2022/01/30 01:28:12;;;;;;;14.73;3.78;;;6.40;82.60;;;;;;5098411;28;20092;-80
2022/01/30 01:30:38;;;;;;;28.73;5.95;;;6.50;82.10;;;;;;5098583;28;20035;-79
2022/01/30 01:33:04;;;;;;;23.70;4.60;;;6.50;81.60;;;;;;5132642;28;20088;-80
2022/01/30 01:35:29;;;;;;;20.33;4.03;;;6.50;81.50;;;;;;5082103;28;20122;-79
2022/01/30 01:37:55;;;;;;;19.73;3.67;;;6.50;81.20;;;;;;5083613;27;20468;-80
2022/01/30 01:40:22;;;;;;;17.50;3.45;;;6.60;80.90;;;;;;5102836;27;20095;-79
2022/01/30 01:42:48;;;;;;;23.73;5.20;;;6.50;80.70;;;;;;5120061;27;20065;-80
2022/01/30 01:45:21;;;;;;;18.88;3.25;;;6.60;80.80;;;;;;5102871;27;20121;-81
2022/01/30 01:47:47;;;;;;;26.70;4.30;;;6.70;80.50;;;;;;5103813;27;20455;-78
2022/01/30 01:50:27;;;;;;;21.25;4.35;;;6.70;80.40;;;;;;5119617;27;20039;-79
2022/01/30 01:52:53;;;;;;;24.17;3.65;;;6.80;80.40;;;;;;5119585;27;20035;-79
2022/01/30 01:55:19;;;;;;;17.27;5.72;;;6.80;80.70;;;;;;5102541;27;20039;-79
2022/01/30 01:57:44;;;;;;;22.05;4.38;;;6.80;80.50;;;;;;5102333;27;20047;-79
2022/01/30 02:00:11;;;;;;;18.00;3.97;;;6.90;80.60;;;;;;5085456;27;20039;-80
2022/01/30 02:02:36;;;;;;;23.92;4.22;;;6.90;80.70;;;;;;5085467;27;20042;-80
2022/01/30 02:05:04;;;;;;;11.15;3.88;;;6.80;80.90;;;;;;5102523;27;20035;-80
2022/01/30 02:10:17;;;;;;;18.73;3.80;;;6.90;80.80;;;;;;5104134;27;20398;-79
2022/01/30 02:12:49;;;;;;;23.08;4.35;;;6.90;80.20;;;;;;5086438;27;20043;-79
2022/01/30 02:15:31;;;;;;;13.38;3.13;;;6.90;79.50;;;;;;5086057;27;20510;-79
2022/01/30 02:26:10;;;;;;;;;;;6.70;81.50;;;;;;5119462;27;20448;-79
2022/01/30 02:28:36;;;;;;;16.13;3.88;;;6.70;82.50;;;;;;5118839;27;19919;-79
2022/01/30 02:31:07;;;;;;;17.10;3.78;;;6.60;83.30;;;;;;5085179;27;20483;-79
2022/01/30 02:33:34;;;;;;;15.32;3.63;;;6.50;83.90;;;;;;5101728;27;20077;-79
2022/01/30 02:35:59;;;;;;;22.83;5.78;;;6.40;85.20;;;;;;5084821;27;20073;-79
2022/01/30 02:38:25;;;;;;;20.00;4.57;;;6.30;86.10;;;;;;5135920;27;20074;-79
2022/01/30 02:40:54;;;;;;;26.20;7.18;;;6.20;87.00;;;;;;5118476;27;20047;-79
2022/01/30 02:43:25;;;;;;;23.95;6.65;;;6.20;87.50;;;;;;5102078;27;20599;-79
2022/01/30 02:46:09;;;;;;;36.17;6.70;;;6.10;87.40;;;;;;5118515;27;20047;-79
2022/01/30 02:48:53;;;;;;;25.73;5.82;;;6.10;87.30;;;;;;5117438;28;20398;-80
2022/01/30 02:51:21;;;;;;;29.27;6.50;;;6.20;87.00;;;;;;5103462;27;20440;-80
2022/01/30 02:53:56;;;;;;;28.42;6.30;;;6.30;86.20;;;;;;5084820;27;20039;-80
2022/01/30 02:56:22;;;;;;;;;;;6.40;85.30;;;;;;5086202;27;20035;-79
2022/01/30 02:58:47;;;;;;;34.42;7.65;;;6.40;84.80;;;;;;5101280;27;19964;-80
2022/01/30 03:01:13;;;;;;;24.92;6.28;;;6.40;84.90;;;;;;5135351;27;20035;-80
2022/01/30 03:03:39;;;;;;;32.78;6.28;;;6.40;84.70;;;;;;5101211;27;20046;-80
2022/01/30 03:06:05;;;;;;;33.22;8.23;;;6.30;84.80;;;;;;5135228;27;20042;-80
2022/01/30 03:08:30;;;;;;;26.38;6.35;;;6.30;84.90;;;;;;5101024;27;20468;-79
2022/01/30 03:10:56;;;;;;;25.45;7.50;;;6.30;84.50;;;;;;5135171;27;20054;-79
2022/01/30 03:13:22;;;;;;;25.30;5.25;;;6.30;83.80;;;;;;5101047;27;20142;-79
2022/01/30 03:15:47;;;;;;;35.20;6.00;;;6.40;83.40;;;;;;5135360;27;20039;-79
2022/01/30 03:18:13;;;;;;;37.17;6.78;;;6.40;83.40;;;;;;5101031;27;20046;-79
2022/01/30 03:20:41;;;;;;;36.22;7.00;;;6.40;84.10;;;;;;5100846;27;20550;-80
2022/01/30 03:23:07;;;;;;;25.92;7.38;;;6.30;84.80;;;;;;5101194;27;20046;-80
2022/01/30 03:25:33;;;;;;;30.85;6.70;;;6.30;85.50;;;;;;5100837;27;20039;-80
2022/01/30 03:28:01;;;;;;;37.25;7.97;;;6.30;85.80;;;;;;5083936;27;20062;-80
2022/01/30 03:30:30;;;;;;;47.05;8.93;;;6.30;85.80;;;;;;5100639;27;20031;-79
2022/01/30 03:32:56;;;;;;;36.72;8.48;;;6.30;85.70;;;;;;5117814;27;20043;-80
2022/01/30 03:35:22;;;;;;;37.17;7.70;;;6.40;86.20;;;;;;5117531;27;20039;-80
2022/01/30 03:37:48;;;;;;;29.20;6.80;;;6.30;86.80;;;;;;5117366;27;20425;-80
2022/01/30 03:40:14;;;;;;;31.08;6.55;;;6.40;86.90;;;;;;5117732;27;20045;-79
2022/01/30 03:42:40;;;;;;;26.90;5.15;;;6.30;87.10;;;;;;5117494;27;20039;-79
2022/01/30 03:45:06;;;;;;;24.80;5.57;;;6.30;86.50;;;;;;5117302;27;20078;-80
2022/01/30 03:47:32;;;;;;;33.65;7.00;;;6.30;86.30;;;;;;5100262;27;20039;-80
2022/01/30 03:49:58;;;;;;;20.48;5.85;;;6.20;85.80;;;;;;5083525;27;20035;-79
2022/01/30 03:52:24;;;;;;;34.47;6.40;;;6.10;85.80;;;;;;5100599;27;20054;-80
2022/01/30 03:54:49;;;;;;;39.45;8.70;;;6.10;85.10;;;;;;5134264;27;20470;-80
2022/01/30 03:57:15;;;;;;;32.13;6.50;;;6.10;84.70;;;;;;5100126;27;20043;-80
2022/01/30 03:59:40;;;;;;;28.95;6.18;;;6.10;84.00;;;;;;5082931;27;20051;-80
2022/01/30 04:02:06;;;;;;;29.73;7.45;;;6.10;83.30;;;;;;5099972;27;20039;-80
2022/01/30 04:04:33;;;;;;;25.38;5.72;;;6.10;81.30;;;;;;5099947;27;20110;-80
2022/01/30 04:06:59;;;;;;;28.60;7.70;;;6.20;80.20;;;;;;5099893;27;20126;-80
2022/01/30 04:09:26;;;;;;;27.38;7.40;;;6.20;78.90;;;;;;5100068;27;20047;-79
2022/01/30 04:11:53;;;;;;;25.80;6.03;;;6.20;78.40;;;;;;5099763;27;20117;-80
2022/01/30 04:14:19;;;;;;;26.63;5.88;;;6.30;76.90;;;;;;5099471;27;20055;-80
2022/01/30 04:16:45;;;;;;;35.55;7.03;;;6.20;77.20;;;;;;5099808;27;20487;-81
2022/01/30 04:19:11;;;;;;;26.02;5.95;;;6.10;77.30;;;;;;5116724;27;20556;-82
2022/01/30 04:21:37;;;;;;;29.75;7.35;;;6.20;75.60;;;;;;5133787;27;20075;-80
2022/01/30 04:24:03;;;;;;;24.73;6.70;;;6.20;75.00;;;;;;5116665;27;20047;-80
2022/01/30 04:26:29;;;;;;;19.27;5.72;;;6.30;74.70;;;;;;5099539;27;20039;-81
2022/01/30 04:28:55;;;;;;;27.42;7.90;;;6.30;74.00;;;;;;5099674;27;20154;-81
2022/01/30 04:31:21;;;;;;;32.30;7.28;;;6.30;74.10;;;;;;5099825;27;20039;-80
2022/01/30 04:33:48;;;;;;;32.35;6.63;;;6.30;74.30;;;;;;5116453;27;20035;-81
2022/01/30 04:36:19;;;;;;;33.53;7.88;;;6.30;74.60;;;;;;5116652;27;20372;-80
2022/01/30 04:41:34;;;;;;;32.50;7.28;;;6.20;75.10;;;;;;5116522;27;20047;-81
2022/01/30 05:03:08;;;;;;;36.67;7.20;;;6.20;76.00;;;;;;5115926;27;20134;-80
2022/01/30 05:05:53;;;;;;;29.48;9.25;;;6.30;75.40;;;;;;5115959;27;20099;-79
2022/01/30 05:08:19;;;;;;;39.38;8.00;;;6.20;75.40;;;;;;5101560;28;20047;-79
2022/01/30 05:10:45;;;;;;;30.73;6.47;;;6.20;75.30;;;;;;5115819;28;20176;-79
2022/01/30 05:13:17;;;;;;;31.20;6.00;;;6.20;75.20;;;;;;5098032;27;20138;-80
2022/01/30 05:15:43;;;;;;;37.58;8.05;;;6.20;74.60;;;;;;5132747;27;20495;-79
2022/01/30 05:18:10;;;;;;;33.72;9.07;;;6.10;75.20;;;;;;5098672;27;20039;-80
2022/01/30 05:20:37;;;;;;;27.40;6.63;;;6.10;75.40;;;;;;5115651;27;20035;-80
2022/01/30 05:23:03;;;;;;;42.75;10.48;;;6.10;75.40;;;;;;5081855;27;20038;-79
2022/01/30 05:25:29;;;;;;;34.80;6.95;;;6.10;74.40;;;;;;5098697;28;20043;-81
2022/01/30 05:27:55;;;;;;;27.17;5.63;;;6.10;74.30;;;;;;5115406;28;20053;-79
2022/01/30 05:30:21;;;;;;;38.42;8.82;;;6.10;74.10;;;;;;5115671;28;20502;-80
2022/01/30 05:32:47;;;;;;;28.77;7.80;;;6.20;73.80;;;;;;5098867;28;20042;-79
2022/01/30 05:35:13;;;;;;;27.80;7.03;;;6.10;74.40;;;;;;5115779;28;20039;-81
2022/01/30 05:37:42;;;;;;;29.95;7.25;;;6.10;74.50;;;;;;5115290;28;20049;-80
2022/01/30 05:40:08;;;;;;;30.30;6.85;;;6.10;74.80;;;;;;5115490;28;20054;-79
2022/01/30 05:42:36;;;;;;;36.22;7.88;;;6.10;75.00;;;;;;5115433;28;20055;-79
2022/01/30 05:48:17;;;;;;;32.35;7.63;;;6.10;74.40;;;;;;5062157;28;20566;-81
2022/01/30 05:50:44;;;;;;;33.22;6.97;;;6.20;74.50;;;;;;5074035;28;20050;-80
2022/01/30 05:53:10;;;;;;;34.33;8.65;;;6.20;74.90;;;;;;5096397;28;20089;-81
2022/01/30 05:55:36;;;;;;;38.15;8.27;;;6.30;74.70;;;;;;5115295;28;20062;-79
2022/01/30 05:58:03;;;;;;;29.20;7.75;;;6.20;75.20;;;;;;5098212;28;20035;-81
2022/01/30 06:00:28;;;;;;;41.88;8.68;;;6.30;74.90;;;;;;5115486;28;20125;-81
2022/01/30 06:02:54;;;;;;;31.65;7.22;;;6.20;74.80;;;;;;5098561;28;20554;-80
2022/01/30 06:05:23;;;;;;;38.97;10.30;;;6.30;74.40;;;;;;5132338;28;20482;-80
2022/01/30 06:07:53;;;;;;;27.77;7.85;;;6.30;74.00;;;;;;5098391;28;20402;-81
2022/01/30 06:10:27;;;;;;;39.42;9.15;;;6.20;74.20;;;;;;5132594;28;20039;-81
2022/01/30 06:12:52;;;;;;;42.60;7.60;;;6.20;74.00;;;;;;5098408;28;20387;-80
2022/01/30 06:15:19;;;;;;;36.47;8.80;;;6.20;74.30;;;;;;5098091;28;20050;-80
2022/01/30 06:17:45;;;;;;;32.42;6.53;;;6.30;73.40;;;;;;5098451;28;20078;-79
2022/01/30 06:20:11;;;;;;;38.25;6.63;;;6.30;72.40;;;;;;5098336;28;20039;-80
2022/01/30 06:22:38;;;;;;;22.90;5.57;;;6.30;72.20;;;;;;5098109;27;20035;-79
2022/01/30 06:25:05;;;;;;;37.88;9.55;;;6.40;71.80;;;;;;5118718;27;20095;-79
2022/01/30 06:27:30;;;;;;;40.90;8.27;;;6.30;72.80;;;;;;5102014;27;20039;-79
2022/01/30 06:29:56;;;;;;;30.48;7.53;;;6.40;74.10;;;;;;5136144;27;20479;-80
2022/01/30 06:32:22;;;;;;;29.65;7.72;;;6.40;74.40;;;;;;5084842;27;20175;-80
2022/01/30 06:34:48;;;;;;;36.03;7.75;;;6.40;74.10;;;;;;5102024;27;20035;-79
2022/01/30 06:37:13;;;;;;;37.92;8.68;;;6.30;74.60;;;;;;5101674;27;20031;-80
2022/01/30 06:39:39;;;;;;;25.08;5.97;;;6.40;74.40;;;;;;5135795;27;20172;-79
2022/01/30 06:42:06;;;;;;;39.15;6.88;;;6.40;74.80;;;;;;5101570;27;20027;-80
2022/01/30 06:44:32;;;;;;;44.53;9.27;;;6.40;75.30;;;;;;5118523;27;20035;-81
2022/01/30 06:46:57;;;;;;;37.92;9.80;;;6.40;75.40;;;;;;5101350;27;20065;-81
2022/01/30 06:49:23;;;;;;;38.10;8.48;;;6.40;75.70;;;;;;5101375;27;20047;-80
2022/01/30 06:51:49;;;;;;;35.58;7.28;;;6.40;74.90;;;;;;5118367;27;20452;-81
2022/01/30 06:54:14;;;;;;;34.05;7.10;;;6.40;74.60;;;;;;5101397;27;20035;-81
2022/01/30 06:56:40;;;;;;;33.08;6.35;;;6.40;73.80;;;;;;5101269;27;20245;-80
2022/01/30 06:59:06;;;;;;;37.80;7.88;;;6.40;73.30;;;;;;5135325;27;20089;-80
2022/01/30 07:01:31;;;;;;;36.90;7.32;;;6.30;72.90;;;;;;5084357;27;20045;-82
2022/01/30 07:03:57;;;;;;;38.38;8.07;;;6.40;73.00;;;;;;5101486;27;20096;-81
2022/01/30 07:06:23;;;;;;;30.30;7.75;;;6.40;73.30;;;;;;5101146;27;20035;-81
2022/01/30 07:08:48;;;;;;;36.67;7.35;;;6.30;73.00;;;;;;5101103;27;20046;-81
2022/01/30 07:11:15;;;;;;;31.40;6.88;;;6.40;70.70;;;;;;5101404;27;20046;-80
2022/01/30 07:13:41;;;;;;;36.30;8.90;;;6.40;69.20;;;;;;5134882;27;20070;-80
2022/01/30 07:16:07;;;;;;;38.03;8.10;;;6.40;68.70;;;;;;5100685;27;20043;-82
2022/01/30 07:18:33;;;;;;;32.95;7.57;;;6.30;68.20;;;;;;5083955;27;20035;-81
2022/01/30 07:20:59;;;;;;;36.35;9.10;;;6.40;68.50;;;;;;5117873;27;20046;-82
2022/01/30 07:23:25;;;;;;;35.92;6.63;;;6.30;69.80;;;;;;5100465;27;20493;-81
2022/01/30 07:25:50;;;;;;;39.92;9.75;;;6.30;71.20;;;;;;5100882;27;20219;-81
2022/01/30 07:28:16;;;;;;;41.92;8.20;;;6.30;71.00;;;;;;5083456;27;20479;-81
2022/01/30 07:30:42;;;;;;;31.45;7.40;;;6.30;71.60;;;;;;5082419;27;20475;-81
2022/01/30 07:33:07;;;;;;;33.95;8.88;;;6.30;71.00;;;;;;5115295;27;20035;-83
2022/01/30 07:35:36;;;;;;;32.08;8.43;;;6.20;70.90;;;;;;5083100;27;20035;-81
2022/01/30 07:38:03;;;;;;;32.60;7.90;;;6.10;71.70;;;;;;5100476;27;20155;-81
2022/01/30 07:40:32;;;;;;;36.03;7.43;;;6.10;72.00;;;;;;5100890;27;20510;-80
2022/01/30 07:42:58;;;;;;;42.63;8.27;;;6.20;72.40;;;;;;5100612;27;20047;-81
2022/01/30 07:45:25;;;;;;;31.73;6.03;;;6.20;72.00;;;;;;5100768;27;20448;-81
2022/01/30 07:47:51;;;;;;;34.72;7.80;;;6.20;71.60;;;;;;5083785;27;20039;-81
2022/01/30 07:50:17;;;;;;;40.08;8.18;;;6.20;71.60;;;;;;5117747;27;20386;-80
2022/01/30 07:52:43;;;;;;;31.38;9.02;;;6.10;72.20;;;;;;5100640;27;20031;-79
2022/01/30 07:55:09;;;;;;;37.70;9.30;;;6.20;71.80;;;;;;5117369;27;20039;-80
2022/01/30 07:57:35;;;;;;;46.47;10.57;;;6.10;72.40;;;;;;5100118;27;20043;-80
2022/01/30 08:00:01;;;;;;;42.45;9.50;;;6.10;72.80;;;;;;5100318;27;20049;-81
2022/01/30 08:02:27;;;;;;;36.53;9.40;;;6.10;73.00;;;;;;5116970;27;20497;-79
2022/01/30 08:04:54;;;;;;;39.63;8.25;;;6.20;72.80;;;;;;5099978;27;20119;-79
2022/01/30 08:07:19;;;;;;;36.33;7.25;;;6.30;69.00;;;;;;5117382;27;20043;-79
2022/01/30 08:09:45;;;;;;;31.15;6.38;;;6.20;69.70;;;;;;5096115;27;20046;-81
2022/01/30 08:12:11;;;;;;;33.67;7.18;;;6.20;68.40;;;;;;5094458;27;20525;-81
2022/01/30 08:14:37;;;;;;;27.08;7.10;;;6.10;67.30;;;;;;5093544;27;20092;-81
2022/01/30 08:17:03;;;;;;;27.13;7.65;;;6.10;67.50;;;;;;5109679;27;20129;-81
2022/01/30 08:19:29;;;;;;;34.70;6.97;;;6.10;66.90;;;;;;5109906;27;20046;-81
2022/01/30 08:21:56;;;;;;;29.30;5.85;;;6.00;66.20;;;;;;5092495;27;20043;-80
2022/01/30 08:24:24;;;;;;;36.15;6.40;;;5.90;67.20;;;;;;5093210;27;20031;-81
2022/01/30 08:26:50;;;;;;;36.25;7.80;;;5.90;67.30;;;;;;5110068;27;20137;-80
2022/01/30 08:29:17;;;;;;;31.58;6.97;;;5.90;67.20;;;;;;5110028;27;20070;-80
2022/01/30 08:31:42;;;;;;;37.60;8.52;;;6.00;66.70;;;;;;5103740;27;20509;-81
2022/01/30 08:34:08;;;;;;;30.58;8.63;;;6.00;66.90;;;;;;5093356;27;20039;-81
2022/01/30 08:36:34;;;;;;;36.22;7.63;;;5.90;67.60;;;;;;5068619;27;20066;-81
2022/01/30 08:39:00;;;;;;;31.55;8.05;;;5.90;68.00;;;;;;5109551;27;20086;-81
2022/01/30 08:41:25;;;;;;;28.85;6.50;;;5.90;68.80;;;;;;5091553;27;20046;-81
2022/01/30 08:43:51;;;;;;;39.15;8.98;;;6.00;68.50;;;;;;5084981;27;20047;-81
2022/01/30 08:46:17;;;;;;;34.13;8.20;;;6.00;68.20;;;;;;5092671;27;20039;-81
2022/01/30 08:48:43;;;;;;;37.60;7.25;;;6.00;68.50;;;;;;5092855;27;20043;-81
2022/01/30 08:51:09;;;;;;;38.88;8.68;;;6.00;68.40;;;;;;5092622;27;20134;-81
2022/01/30 08:53:35;;;;;;;35.92;8.65;;;6.00;69.00;;;;;;5092452;27;20050;-81
2022/01/30 08:56:00;;;;;;;38.22;7.68;;;6.00;69.00;;;;;;5092176;27;20184;-81
2022/01/30 08:58:26;;;;;;;43.60;8.32;;;6.00;69.80;;;;;;5081544;27;20043;-81
2022/01/30 09:00:52;;;;;;;39.13;9.38;;;6.10;70.20;;;;;;5109334;27;20054;-82
2022/01/30 09:03:18;;;;;;;30.75;7.40;;;6.10;70.80;;;;;;5091939;27;20129;-81
2022/01/30 09:05:44;;;;;;;33.67;9.02;;;6.10;70.20;;;;;;5112555;27;20047;-82
2022/01/30 09:08:09;;;;;;;38.25;9.15;;;6.10;70.60;;;;;;5093135;27;20073;-80
2022/01/30 09:10:38;;;;;;;38.40;7.95;;;6.10;71.10;;;;;;5092240;27;20071;-80
2022/01/30 09:13:04;;;;;;;34.97;8.18;;;6.10;71.30;;;;;;5092020;28;20411;-80
2022/01/30 09:15:37;;;;;;;30.83;7.40;;;6.20;71.10;;;;;;5108834;27;20059;-79
2022/01/30 09:18:07;;;;;;;34.00;8.43;;;6.20;70.50;;;;;;5109014;27;20055;-80
2022/01/30 09:20:34;;;;;;;40.22;7.85;;;6.30;70.10;;;;;;5109169;27;20411;-81
2022/01/30 09:22:59;;;;;;;39.58;8.95;;;6.30;70.00;;;;;;5067997;27;20223;-81
2022/01/30 09:25:27;;;;;;;37.92;9.02;;;6.40;70.50;;;;;;5092302;28;20121;-79
2022/01/30 09:27:53;;;;;;;34.95;7.63;;;6.50;70.60;;;;;;5108559;28;20051;-80
2022/01/30 09:30:18;;;;;;;41.08;9.43;;;6.60;71.30;;;;;;5109659;28;20367;-81
2022/01/30 09:32:44;;;;;;;41.33;8.95;;;6.60;71.50;;;;;;5082866;28;20070;-80
2022/01/30 09:35:10;;;;;;;50.47;11.35;;;6.70;72.00;;;;;;5092895;28;20427;-80
2022/01/30 09:37:36;;;;;;;35.67;7.30;;;6.70;72.40;;;;;;5091379;28;20061;-81
2022/01/30 09:40:03;;;;;;;31.90;8.93;;;6.70;72.40;;;;;;5084339;28;20055;-81
2022/01/30 09:42:29;;;;;;;37.70;8.73;;;6.70;72.20;;;;;;5108281;28;20402;-79
2022/01/30 09:45:00;;;;;;;41.03;7.97;;;6.60;72.30;;;;;;5108835;28;20050;-80
2022/01/30 09:47:27;;;;;;;40.15;8.75;;;6.60;71.50;;;;;;5108738;28;20051;-79
2022/01/30 09:49:54;;;;;;;34.15;8.10;;;6.50;71.70;;;;;;5107115;28;20039;-81
2022/01/30 09:52:20;;;;;;;38.17;8.88;;;6.50;72.20;;;;;;5106311;28;20507;-80
2022/01/30 09:54:48;;;;;;;44.58;9.80;;;6.50;71.60;;;;;;5108597;28;20038;-80
2022/01/30 09:57:14;;;;;;;32.00;8.85;;;6.60;70.70;;;;;;5092568;28;20387;-79
2022/01/30 09:59:39;;;;;;;36.38;8.55;;;6.60;70.90;;;;;;5095204;27;20063;-78
2022/01/30 10:02:06;;;;;;;34.75;6.82;;;6.70;70.00;;;;;;5077585;27;20103;-80
2022/01/30 10:04:33;;;;;;;32.83;7.20;;;6.70;68.70;;;;;;5095935;27;20043;-78
2022/01/30 10:07:08;;;;;;;29.73;7.15;;;6.80;68.00;;;;;;5113092;27;20391;-77
2022/01/30 10:09:37;;;;;;;32.53;7.95;;;6.90;68.10;;;;;;5112586;27;20055;-79
2022/01/30 10:12:16;;;;;;;37.35;6.97;;;6.90;68.60;;;;;;5112075;27;20046;-78
2022/01/30 10:15:05;;;;;;;28.50;6.60;;;7.00;68.80;;;;;;5112559;27;20150;-80
2022/01/30 10:17:46;;;;;;;25.58;7.53;;;7.10;68.50;;;;;;5112192;27;20053;-78
2022/01/30 10:20:14;;;;;;;35.10;7.53;;;7.10;68.70;;;;;;5112643;27;20088;-79
2022/01/30 10:23:01;;;;;;;32.10;7.50;;;7.10;68.10;;;;;;5094502;27;20047;-79
2022/01/30 10:25:32;;;;;;;30.08;7.80;;;7.10;67.70;;;;;;5095711;27;20047;-80
2022/01/30 10:28:06;;;;;;;31.50;8.75;;;7.20;67.70;;;;;;5112016;27;20039;-79
2022/01/30 10:30:52;;;;;;;40.80;7.65;;;7.30;67.00;;;;;;5112737;27;20035;-80
2022/01/30 10:33:20;;;;;;;36.47;8.32;;;7.30;67.80;;;;;;5083852;27;20050;-79
2022/01/30 10:35:46;;;;;;;36.20;7.18;;;7.30;67.40;;;;;;5112180;27;20099;-79
2022/01/30 10:38:47;;;;;;;37.72;8.15;;;7.30;67.20;;;;;;5111588;27;20440;-81
2022/01/30 10:41:20;;;;;;;31.33;8.10;;;7.30;67.10;;;;;;5100963;27;20498;-76
2022/01/30 10:44:00;;;;;;;36.10;6.68;;;7.40;67.50;;;;;;5112349;27;20048;-76
2022/01/30 10:46:29;;;;;;;38.17;8.38;;;7.30;67.10;;;;;;5111625;27;20100;-77
2022/01/30 10:49:07;;;;;;;29.92;6.90;;;7.30;66.00;;;;;;5110221;27;20085;-77
2022/01/30 10:51:33;;;;;;;33.58;7.15;;;7.40;65.80;;;;;;5093629;27;20082;-76
2022/01/30 10:54:06;;;;;;;30.88;6.57;;;7.40;65.10;;;;;;5111290;27;20063;-78
2022/01/30 10:56:33;;;;;;;29.30;6.43;;;7.40;65.00;;;;;;5111596;27;20045;-77
2022/01/30 10:59:14;;;;;;;24.50;5.72;;;7.50;64.80;;;;;;5111235;27;20452;-77
2022/01/30 11:02:29;;;;;;;28.42;6.78;;;7.50;63.50;;;;;;5110418;27;20368;-81
2022/01/30 11:16:55;;;;;;;26.80;6.75;;;7.90;63.90;;;;;;5022544;28;20048;-78
2022/01/30 11:18:44;;;;;;;29.25;8.15;;;7.80;63.80;;;;;;5027329;28;20148;-78
2022/01/30 11:21:10;;;;;;;31.83;7.82;;;7.90;63.90;;;;;;5046113;28;20127;-78
2022/01/30 11:23:38;;;;;;;29.75;6.75;;;8.00;64.10;;;;;;5042289;28;20037;-78
2022/01/30 11:26:04;;;;;;;41.70;7.88;;;8.10;64.20;;;;;;5031277;28;20139;-78
2022/01/30 11:28:30;;;;;;;31.50;7.05;;;8.00;64.00;;;;;;5032958;28;20093;-79
2022/01/30 11:30:56;;;;;;;28.58;7.30;;;8.10;64.00;;;;;;5057834;28;21588;-79
2022/01/30 11:33:22;;;;;;;36.38;7.20;;;8.10;64.40;;;;;;5029955;28;20128;-79
2022/01/30 11:35:48;;;;;;;21.85;7.20;;;8.10;64.60;;;;;;5083285;27;20056;-78
2022/01/30 11:38:14;;;;;;;38.35;8.27;;;8.30;64.20;;;;;;5091520;28;20401;-78
2022/01/30 11:40:40;;;;;;;32.08;7.30;;;8.30;63.60;;;;;;5108201;28;20072;-77
2022/01/30 11:43:09;;;;;;;35.83;8.43;;;8.30;63.60;;;;;;5090469;28;20306;-77
2022/01/30 11:45:35;;;;;;;22.75;6.65;;;8.30;64.60;;;;;;5090499;28;20551;-78
2022/01/30 11:48:13;;;;;;;26.17;6.38;;;8.30;64.50;;;;;;5090470;28;20051;-77
2022/01/30 11:50:39;;;;;;;31.90;7.90;;;8.40;63.20;;;;;;5107635;28;20036;-77
2022/01/30 11:53:10;;;;;;;32.53;7.55;;;8.40;63.60;;;;;;5106688;28;20048;-77
2022/01/30 11:55:56;;;;;;;34.00;7.65;;;8.40;64.80;;;;;;5090777;28;20048;-79
2022/01/30 11:58:43;;;;;;;27.52;7.20;;;8.30;65.00;;;;;;5107127;28;20047;-79
2022/01/30 12:01:13;;;;;;;38.67;7.35;;;8.10;64.20;;;;;;5107243;28;20611;-80
2022/01/30 12:04:00;;;;;;;25.40;5.93;;;8.10;64.20;;;;;;5108476;28;20047;-78
2022/01/30 12:06:27;;;;;;;34.55;8.60;;;8.10;65.10;;;;;;5107556;28;20432;-78
2022/01/30 12:08:55;;;;;;;33.42;7.38;;;8.20;64.80;;;;;;5106490;28;20051;-80
2022/01/30 12:14:42;;;;;;;27.40;6.18;;;8.30;63.40;;;;;;5106518;28;20067;-79
2022/01/30 12:17:08;;;;;;;28.20;6.30;;;8.40;61.50;;;;;;5090476;28;20392;-79
2022/01/30 12:19:40;;;;;;;26.83;6.40;;;8.40;61.30;;;;;;5107228;28;20868;-81
2022/01/30 12:22:15;;;;;;;31.45;7.22;;;8.40;62.90;;;;;;5089415;28;20054;-80
2022/01/30 12:24:42;;;;;;;31.50;6.38;;;8.20;62.20;;;;;;5107376;28;20504;-80
2022/01/30 12:27:10;;;;;;;29.80;6.40;;;8.20;60.10;;;;;;5096690;28;20419;-80
2022/01/30 12:29:51;;;;;;;28.23;5.43;;;8.10;61.20;;;;;;5090078;28;20055;-81
2022/01/30 12:32:20;;;;;;;27.55;7.80;;;8.10;62.50;;;;;;5106362;28;20039;-81
2022/01/30 12:34:55;;;;;;;24.52;6.13;;;8.00;62.90;;;;;;5090073;28;20456;-81
2022/01/30 12:37:32;;;;;;;29.23;6.50;;;8.00;63.40;;;;;;5089093;28;20076;-79
2022/01/30 12:40:00;;;;;;;25.85;6.55;;;8.00;64.10;;;;;;5106916;28;20416;-78
2022/01/30 12:42:32;;;;;;;23.73;5.88;;;7.80;64.80;;;;;;5088923;28;20508;-78
2022/01/30 12:45:03;;;;;;;37.28;8.30;;;7.80;63.90;;;;;;5088681;28;20067;-78
2022/01/30 12:47:29;;;;;;;30.63;6.93;;;7.70;64.60;;;;;;5065293;28;20032;-79
2022/01/30 12:50:04;;;;;;;32.25;6.95;;;7.70;65.20;;;;;;5093651;28;20042;-82
2022/01/30 12:54:58;;;;;;;30.33;6.95;;;7.60;65.80;;;;;;5110718;28;20043;-80
2022/01/30 12:57:26;;;;;;;38.22;9.98;;;7.70;66.80;;;;;;5108880;28;20074;-79
2022/01/30 12:59:56;;;;;;;34.80;8.02;;;7.90;66.40;;;;;;5092089;28;20071;-79
2022/01/30 13:02:24;;;;;;;31.20;8.77;;;8.10;66.10;;;;;;5107844;28;20032;-78
2022/01/30 13:05:04;;;;;;;31.92;7.63;;;8.10;66.90;;;;;;5105432;28;20046;-79
2022/01/30 13:07:37;;;;;;;35.08;8.68;;;8.10;66.70;;;;;;5109891;28;20036;-79
2022/01/30 13:10:06;;;;;;;37.65;9.13;;;8.20;66.60;;;;;;5109728;28;20867;-79
2022/01/30 13:12:32;;;;;;;35.17;8.05;;;8.40;66.60;;;;;;5109662;28;20078;-79
2022/01/30 13:15:03;;;;;;;28.20;7.00;;;8.70;65.50;;;;;;5092701;28;20047;-79
2022/01/30 13:17:30;;;;;;;25.80;7.50;;;8.90;64.30;;;;;;5091995;28;20122;-81
2022/01/30 13:19:56;;;;;;;32.72;7.82;;;9.00;63.10;;;;;;5093160;28;20552;-80
2022/01/30 13:22:34;;;;;;;26.33;6.30;;;9.00;62.50;;;;;;5092591;28;20040;-80
2022/01/30 13:25:07;;;;;;;29.70;6.20;;;9.10;62.70;;;;;;5092392;28;20799;-81
2022/01/30 13:27:35;;;;;;;35.15;7.22;;;9.20;62.00;;;;;;5109628;28;20123;-81
2022/01/30 13:30:01;;;;;;;29.42;7.47;;;9.20;61.70;;;;;;5109396;28;20126;-81
2022/01/30 13:32:27;;;;;;;24.80;6.45;;;9.30;61.60;;;;;;5075051;28;20127;-80
2022/01/30 13:34:53;;;;;;;26.25;6.78;;;9.20;61.30;;;;;;5059573;28;20093;-81
2022/01/30 13:37:20;;;;;;;34.35;6.70;;;9.10;61.10;;;;;;5069949;28;20040;-80
2022/01/30 13:48:16;;;;;;;27.08;6.65;;;9.10;59.70;;;;;;5090865;28;20052;-80
2022/01/30 13:50:45;;;;;;;30.80;6.53;;;9.10;59.50;;;;;;5109944;28;20047;-80
2022/01/30 13:53:21;;;;;;;29.35;6.88;;;9.10;60.90;;;;;;5092568;28;20043;-80
2022/01/30 13:56:05;;;;;;;20.15;5.57;;;9.20;62.10;;;;;;5092634;28;20036;-80
2022/01/30 13:58:40;;;;;;;19.00;6.53;;;9.20;61.50;;;;;;5109721;28;20051;-80
2022/01/30 14:01:10;;;;;;;26.45;5.88;;;9.20;60.40;;;;;;5109481;28;20051;-80
2022/01/30 14:03:41;;;;;;;23.73;6.68;;;9.20;61.50;;;;;;5110041;28;20387;-80
2022/01/30 14:06:30;;;;;;;24.77;6.35;;;9.10;61.10;;;;;;5092678;28;20046;-79
2022/01/30 14:09:00;;;;;;;28.15;5.45;;;9.10;59.10;;;;;;5110369;28;20088;-81
2022/01/30 14:11:35;;;;;;;19.95;5.15;;;9.10;58.60;;;;;;5094289;28;20368;-81